Jerome County Airport

KJER · Idaho, Stany Zjednoczone

Historia METAR KJER · Jerome County Airport

Poniżej widzisz METAR-y z ostatnich kilku dni. Wybierz rok, aby przeglądać starsze METAR-y, począwszy od roku 2007.

23 kwietnia 2024

Czas Kod Pogoda Temp. Widoczność Sufit Wiatr METAR/SPECI
09:53
V
11 °C 10 mi - 360° 360° 0 kt METAR KJER 231553Z AUTO 00000KT 10SM CLR 11/M06 A3001 RMK AO2 SLP151 T01111056
08:53
V
9 °C 10 mi - 110° 110° 4 kt METAR KJER 231453Z AUTO 11004KT 10SM CLR 09/M06 A3001 RMK AO2 SLP154 T00891056 53007
07:53
V
5 °C 10 mi - 100° 100° 6 kt METAR KJER 231353Z AUTO 10006KT 10SM CLR 05/M04 A3000 RMK AO2 SLP152 T00501044
06:53
V
2 °C 10 mi - 120° 120° 8 kt METAR KJER 231253Z AUTO 12008KT 10SM CLR 02/M05 A2999 RMK AO2 SLP151 T00171050
05:53
V
1 °C 10 mi - 130° 130° 6 kt METAR KJER 231153Z AUTO 13006KT 10SM CLR 01/M06 A2998 RMK AO2 SLP150 T00111061 10072 20006 52003
04:53
V
4 °C 10 mi - 360° 360° 0 kt METAR KJER 231053Z AUTO 00000KT 10SM CLR 04/M06 A2998 RMK AO2 SLP144 T00441056
03:53
V
6 °C 10 mi - 260° 260° 3 kt METAR KJER 230953Z AUTO 26003KT 10SM CLR 06/M06 A2998 RMK AO2 SLP141 T00611056
02:53
V
6 °C 10 mi - 360° 360° 0 kt METAR KJER 230853Z AUTO 00000KT 10SM CLR 06/M05 A2997 RMK AO2 SLP141 T00611050 50002
01:53
V
7 °C 10 mi - 230° 230° 8 kt METAR KJER 230753Z AUTO 23008KT 10SM CLR 07/M04 A2997 RMK AO2 SLP140 T00721044
00:53
V
7 °C 10 mi - 210° 210° 7 kt METAR KJER 230653Z AUTO 21007KT 10SM CLR 07/M04 A2998 RMK AO2 SLP144 T00671039 401610011

22 kwietnia 2024

Czas Kod Pogoda Temp. Widoczność Sufit Wiatr METAR/SPECI
23:53
V
7 °C 10 mi - 220° 220° 8 kt METAR KJER 230553Z AUTO 22008KT 10SM CLR 07/M03 A2997 RMK AO2 SLP144 T00671033 10161 20067 51005
22:53
V
8 °C 10 mi - 210° 210° 6 kt METAR KJER 230453Z AUTO 21006KT 10SM CLR 08/M04 A2997 RMK AO2 SLP143 T00781044
21:53
V
9 °C 10 mi - 250° 250° 8 kt METAR KJER 230353Z AUTO 25008KT 10SM CLR 09/M06 A2996 RMK AO2 SLP142 T00941061
20:53
V
10 °C 10 mi - 240° 240° 6 kt METAR KJER 230253Z AUTO 24006KT 10SM CLR 10/M07 A2995 RMK AO2 SLP140 T01001067 55001
19:53
V
13 °C 10 mi - 260° 260° 8 kt METAR KJER 230153Z AUTO 26008KT 10SM CLR 13/M06 A2994 RMK AO2 SLP134 T01331061
18:53
V
14 °C 10 mi - 260° 260° 12 kt METAR KJER 230053Z AUTO 26012KT 10SM CLR 14/M08 A2995 RMK AO2 SLP136 T01441078
17:53
V
16 °C 10 mi - 270° 270° 12 kt METAR KJER 222353Z AUTO 27012KT 10SM CLR 16/M09 A2995 RMK AO2 SLP135 T01561089 10161 20106 56019
16:53
V
16 °C 10 mi - 280° 280° 12 kt METAR KJER 222253Z AUTO 28012KT 10SM CLR 16/M09 A2996 RMK AO2 SLP139 T01561094
15:53
V
15 °C 10 mi - 250° 250° 11 - 19 kt METAR KJER 222153Z AUTO 25011G19KT 10SM CLR 15/M07 A2999 RMK AO2 SLP148 T01501072
14:53
V
14 °C 10 mi - 280° 280° 6 - 16 kt METAR KJER 222053Z AUTO 28006G16KT 10SM CLR 14/M06 A3001 RMK AO2 SLP155 T01391061 56017
13:53
V
13 °C 10 mi - 290° 290° 9 - 18 kt METAR KJER 221953Z AUTO 29009G18KT 10SM CLR 13/M06 A3003 RMK AO2 SLP161 T01331056
12:53
V
12 °C 10 mi - 270° 270° 9 - 18 kt METAR KJER 221853Z AUTO 27009G18KT 10SM CLR 12/M04 A3005 RMK AO2 SLP167 T01221039
11:53
V
10 °C 10 mi - 290° 290° 11 - 20 kt METAR KJER 221753Z AUTO 29011G20KT 10SM CLR 10/M04 A3007 RMK AO2 SLP179 T01001039 10106 20011 58007
10:53
V
8 °C 10 mi - 260° 260° 10 kt METAR KJER 221653Z AUTO 26010KT 10SM CLR 08/M05 A3009 RMK AO2 SLP185 T00831050
09:53
V
7 °C 10 mi - 230° 230° 10 kt METAR KJER 221553Z AUTO 23010KT 10SM CLR 07/M06 A3010 RMK AO2 SLP189 T00671056
08:53
V
4 °C 10 mi - 240° 240° 10 kt METAR KJER 221453Z AUTO 24010KT 10SM CLR 04/M06 A3010 RMK AO2 SLP189 T00441056 53005
07:53
V
3 °C 10 mi - 250° 250° 8 kt METAR KJER 221353Z AUTO 25008KT 10SM CLR 03/M06 A3008 RMK AO2 SLP185 T00281061
06:53
V
2 °C 10 mi - 250° 250° 6 kt METAR KJER 221253Z AUTO 25006KT 10SM CLR 02/M07 A3008 RMK AO2 SLP184 T00171067
05:53
V
3 °C 10 mi - 240° 240° 10 kt METAR KJER 221153Z AUTO 24010KT 10SM CLR 03/M06 A3008 RMK AO2 SLP177 T00281061 10078 20028 51000
04:53
V
3 °C 10 mi - 260° 260° 12 kt METAR KJER 221053Z AUTO 26012KT 10SM CLR 03/M06 A3008 RMK AO2 SLP176 T00331061
03:53
V
3 °C 10 mi - 240° 240° 9 kt METAR KJER 220953Z AUTO 24009KT 10SM CLR 03/M06 A3008 RMK AO2 SLP175 T00331056
02:53
V
6 °C 10 mi - 250° 250° 14 kt METAR KJER 220853Z AUTO 25014KT 10SM CLR 06/M06 A3008 RMK AO2 SLP171 T00561061 58001
01:53
V
7 °C 10 mi - 250° 250° 15 - 24 kt METAR KJER 220753Z AUTO 25015G24KT 10SM CLR 07/M06 A3008 RMK AO2 SLP171 T00671061
00:53
V
7 °C 10 mi - 260° 260° 17 kt METAR KJER 220653Z AUTO 26017KT 10SM CLR 07/M07 A3008 RMK AO2 SLP172 T00721067 401890061

21 kwietnia 2024

Czas Kod Pogoda Temp. Widoczność Sufit Wiatr METAR/SPECI
23:53
V
8 °C 10 mi - 240° 240° 14 kt METAR KJER 220553Z AUTO 24014KT 10SM CLR 08/M06 A3008 RMK AO2 SLP173 T00781061 10167 20078 50005
22:53
V
9 °C 10 mi - 250° 250° 15 - 26 kt METAR KJER 220453Z AUTO 25015G26KT 10SM CLR 09/M06 A3009 RMK AO2 PK WND 26027/0432 SLP180 T00891061
21:53
V
10 °C 10 mi - 240° 240° 17 kt METAR KJER 220353Z AUTO 24017KT 10SM CLR 10/M04 A3008 RMK AO2 PK WND 24027/0310 SLP177 T01001039
20:53
V
11 °C 10 mi - 250° 250° 18 - 26 kt METAR KJER 220253Z AUTO 25018G26KT 10SM CLR 11/M02 A3006 RMK AO2 PK WND 25027/0210 SLP167 T01111017 52002
19:53
V
13 °C 10 mi - 250° 250° 17 kt METAR KJER 220153Z AUTO 25017KT 10SM CLR 13/01 A3006 RMK AO2 PK WND 26027/0112 SLP170 T01280006
18:53
V
14 °C 10 mi - 270° 270° 19 - 26 kt METAR KJER 220053Z AUTO 27019G26KT 10SM CLR 14/02 A3006 RMK AO2 PK WND 27032/2356 SLP169 T01440017
17:53
V
17 °C 10 mi - 280° 280° 22 - 30 kt METAR KJER 212353Z AUTO 28022G30KT 10SM CLR 17/03 A3005 RMK AO2 PK WND 27030/2343 SLP164 T01670028 10189 20150 56011
16:53
V
18 °C 10 mi - 270° 270° 20 - 30 kt METAR KJER 212253Z AUTO 27020G30KT 10SM CLR 18/03 A3006 RMK AO2 PK WND 27033/2243 SLP165 T01780033
15:53
V
18 °C 10 mi - 270° 270° 18 - 26 kt METAR KJER 212153Z AUTO 27018G26KT 10SM CLR 18/03 A3008 RMK AO2 PK WND 27028/2109 SLP170 T01830033
14:53
V
19 °C 10 mi - 280° 280° 18 - 27 kt METAR KJER 212053Z AUTO 28018G27KT 10SM CLR 19/03 A3009 RMK AO2 PK WND 26029/2001 SLP171 T01890033 56018
13:53
V
18 °C 10 mi - 270° 270° 19 - 26 kt METAR KJER 211953Z AUTO 27019G26KT 10SM CLR 18/03 A3011 RMK AO2 PK WND 27029/1918 SLP177 T01830033
12:53
V
17 °C 10 mi - 270° 270° 18 - 23 kt METAR KJER 211853Z AUTO 27018G23KT 10SM CLR 17/03 A3013 RMK AO2 SLP185 T01720028
11:53
V
15 °C 10 mi - 260° 260° 13 kt METAR KJER 211753Z AUTO 26013KT 10SM CLR 15/01 A3015 RMK AO2 SLP196 T01500006 10156 20061 51008
10:53
V
12 °C 10 mi - 270° 270° 13 kt METAR KJER 211653Z AUTO 27013KT 10SM CLR 12/02 A3015 RMK AO2 SLP199 T01220022
09:53
V
10 °C 10 mi - 240° 240° 13 kt METAR KJER 211553Z AUTO 24013KT 10SM CLR 10/01 A3014 RMK AO2 SLP199 T01000006
08:53
V
12 °C 10 mi - 210° 210° 9 kt METAR KJER 211453Z AUTO 21009KT 10SM CLR 12/01 A3013 RMK AO2 SLP188 T01170006 53008
07:53
V
7 °C 10 mi - 090° 090° 3 kt METAR KJER 211353Z AUTO 09003KT 10SM FEW100 07/02 A3012 RMK AO2 SLP184 T00720017
06:53
V
6 °C 10 mi - 060° 060° 8 kt METAR KJER 211253Z AUTO 06008KT 10SM CLR 06/M01 A3010 RMK AO2 SLP180 T00611006
05:53
V
6 °C 10 mi - 050° 050° 12 kt METAR KJER 211153Z AUTO 05012KT 10SM CLR 06/M01 A3010 RMK AO2 SLP177 T00611011 10106 20061 55000
04:53
V
7 °C 10 mi 10.000 ft 060° 060° 11 kt METAR KJER 211053Z AUTO 06011KT 10SM BKN100 07/M01 A3010 RMK AO2 SLP176 T00671011
03:53
V
7 °C 10 mi 11.000 ft 070° 070° 10 kt METAR KJER 210953Z AUTO 07010KT 10SM OVC110 07/M01 A3010 RMK AO2 SLP175 T00721011
02:53
V
9 °C 10 mi - 360° 360° 0 kt METAR KJER 210853Z AUTO 10SM CLR 09/M03 A3010 RMK AO2 SLP175 T00891028 58006
01:53
V
9 °C 10 mi - 360° 360° 0 kt METAR KJER 210753Z AUTO 10SM CLR 09/M03 A3012 RMK AO2 SLP183 T00891028
00:53
V
11 °C 10 mi - 360° 360° 0 kt METAR KJER 210653Z AUTO 10SM CLR 11/M03 A3012 RMK AO2 SLP183 T01061028 402000017

20 kwietnia 2024

Czas Kod Pogoda Temp. Widoczność Sufit Wiatr METAR/SPECI
23:53
V
11 °C 10 mi - 360° 360° 0 kt METAR KJER 210553Z AUTO 10SM CLR 11/M03 A3012 RMK AO2 SLP185 T01061033 10194 20089 50006
Zgłoś zmianę